createdAt,value
2023-05-03T00:00:51.647Z,9.80
2023-05-03T00:03:22.748Z,9.70
2023-05-03T00:05:52.410Z,9.70
2023-05-03T00:08:21.737Z,9.70
2023-05-03T00:10:50.013Z,9.70
2023-05-03T00:13:17.973Z,9.60
2023-05-03T00:15:45.979Z,9.60
2023-05-03T00:18:14.076Z,9.50
2023-05-03T00:20:42.324Z,9.50
2023-05-03T00:23:12.268Z,9.50
2023-05-03T00:25:40.421Z,9.50
2023-05-03T00:28:08.685Z,9.40
2023-05-03T00:30:36.766Z,9.40
2023-05-03T00:33:04.874Z,9.40
2023-05-03T00:35:32.785Z,9.40
2023-05-03T00:38:00.986Z,9.30
2023-05-03T00:40:30.708Z,9.30
2023-05-03T00:42:58.650Z,9.30
2023-05-03T00:45:26.863Z,9.40
2023-05-03T00:47:54.794Z,9.30
2023-05-03T00:50:23.330Z,9.30
2023-05-03T00:52:52.102Z,9.30
2023-05-03T00:55:20.390Z,9.30
2023-05-03T00:57:49.828Z,9.30
2023-05-03T01:00:18.357Z,9.30
2023-05-03T01:02:46.334Z,9.20
2023-05-03T01:05:14.998Z,9.20
2023-05-03T01:07:53.639Z,9.20
2023-05-03T01:10:29.057Z,9.20
2023-05-03T01:13:07.752Z,9.20
2023-05-03T01:15:46.494Z,9.20
2023-05-03T01:18:18.224Z,9.10
2023-05-03T01:20:50.159Z,9.10
2023-05-03T01:23:30.656Z,9.10
2023-05-03T01:26:00.236Z,9.10
2023-05-03T01:28:28.159Z,9.10
2023-05-03T01:30:57.814Z,9.00
2023-05-03T01:33:45.692Z,9.00
2023-05-03T01:36:20.682Z,9.00
2023-05-03T01:38:50.719Z,9.00
2023-05-03T01:41:22.789Z,9.00
2023-05-03T01:43:52.924Z,9.00
2023-05-03T01:46:20.868Z,9.00
2023-05-03T01:48:48.938Z,9.10
2023-05-03T01:51:17.365Z,9.10
2023-05-03T01:53:45.901Z,9.20
2023-05-03T01:56:15.000Z,9.20
2023-05-03T01:58:44.627Z,9.20
2023-05-03T02:01:12.725Z,9.30
2023-05-03T02:03:40.793Z,9.40
2023-05-03T02:06:09.622Z,9.50
2023-05-03T02:08:38.139Z,9.50
2023-05-03T02:11:06.647Z,9.50
2023-05-03T02:13:34.730Z,9.60
2023-05-03T02:16:04.150Z,9.60
2023-05-03T02:18:33.798Z,9.60
2023-05-03T02:21:01.950Z,9.70
2023-05-03T02:23:29.805Z,9.70
2023-05-03T02:25:58.661Z,9.80
2023-05-03T02:28:26.692Z,9.80
2023-05-03T02:30:54.780Z,9.80
2023-05-03T02:33:24.126Z,9.90
2023-05-03T02:35:52.170Z,9.80
2023-05-03T02:38:20.168Z,9.80
2023-05-03T02:40:48.065Z,9.80
2023-05-03T02:43:16.104Z,9.80
2023-05-03T02:45:44.398Z,9.80
2023-05-03T02:48:12.538Z,9.80
2023-05-03T02:50:42.067Z,9.80
2023-05-03T02:53:10.066Z,9.70
2023-05-03T02:55:38.132Z,9.70
2023-05-03T02:58:06.071Z,9.70
2023-05-03T03:00:34.318Z,9.70
2023-05-03T03:03:02.407Z,9.70
2023-05-03T03:05:30.894Z,9.60
2023-05-03T03:08:00.244Z,9.60
2023-05-03T03:10:28.169Z,9.60
2023-05-03T03:12:56.105Z,9.60
2023-05-03T03:15:24.033Z,9.60
2023-05-03T03:17:52.236Z,9.50
2023-05-03T03:20:20.254Z,9.50
2023-05-03T03:22:48.230Z,9.60
2023-05-03T03:25:17.681Z,9.70
2023-05-03T03:27:45.732Z,9.60
2023-05-03T03:30:14.251Z,9.50
2023-05-03T03:32:42.312Z,9.50
2023-05-03T03:35:11.696Z,9.60
2023-05-03T03:37:40.282Z,9.50
2023-05-03T03:40:09.887Z,9.60
2023-05-03T03:42:40.112Z,9.60
2023-05-03T03:45:09.115Z,9.50
2023-05-03T03:47:37.105Z,9.40
2023-05-03T03:50:05.693Z,9.40
2023-05-03T03:52:34.007Z,9.40
2023-05-03T03:55:02.259Z,9.40
2023-05-03T03:57:31.549Z,9.40
2023-05-03T04:00:01.365Z,9.40
2023-05-03T04:02:29.979Z,9.40
2023-05-03T04:04:58.008Z,9.40
2023-05-03T04:07:25.957Z,9.50
2023-05-03T04:09:54.384Z,9.50
2023-05-03T04:12:22.426Z,9.40
2023-05-03T04:14:50.326Z,9.40
2023-05-03T04:17:19.586Z,9.40
2023-05-03T04:19:47.838Z,9.40
2023-05-03T04:22:15.776Z,9.30
2023-05-03T04:24:43.916Z,9.40
2023-05-03T04:27:14.622Z,9.20
2023-05-03T04:29:42.736Z,9.20
2023-05-03T04:32:11.274Z,9.30
2023-05-03T04:34:42.171Z,9.20
2023-05-03T04:37:10.361Z,9.20
2023-05-03T04:39:38.330Z,9.30
2023-05-03T04:42:06.485Z,9.30
2023-05-03T04:44:34.549Z,9.40
2023-05-03T04:47:03.163Z,9.40
2023-05-03T04:49:31.365Z,9.40
2023-05-03T04:52:00.633Z,9.50
2023-05-03T04:54:28.570Z,9.60
2023-05-03T04:56:56.859Z,9.60
2023-05-03T04:59:24.818Z,9.60
2023-05-03T05:01:52.762Z,9.40
2023-05-03T05:04:21.092Z,9.30
2023-05-03T05:06:49.061Z,9.20
2023-05-03T05:09:26.163Z,9.10
2023-05-03T05:11:56.780Z,9.00
2023-05-03T05:14:27.224Z,9.10
2023-05-03T05:16:55.240Z,9.20
2023-05-03T05:19:23.324Z,9.40
2023-05-03T05:21:52.908Z,9.40
2023-05-03T05:24:21.084Z,9.40
2023-05-03T05:26:50.605Z,9.40
2023-05-03T05:29:18.646Z,9.50
2023-05-03T05:31:46.625Z,9.40
2023-05-03T05:34:14.715Z,9.40
2023-05-03T05:36:42.812Z,9.50
2023-05-03T05:39:10.757Z,9.40
2023-05-03T05:41:39.434Z,9.30
2023-05-03T05:44:08.697Z,9.50
2023-05-03T05:46:36.936Z,9.40
2023-05-03T05:49:04.890Z,9.50
2023-05-03T05:51:33.066Z,9.40
2023-05-03T05:54:01.168Z,9.50
2023-05-03T05:56:29.036Z,9.50
2023-05-03T05:58:57.822Z,9.70
2023-05-03T06:01:27.794Z,9.80
2023-05-03T06:03:56.595Z,9.70
2023-05-03T06:06:24.648Z,9.80
2023-05-03T06:08:52.555Z,9.90
2023-05-03T06:11:21.588Z,10.10
2023-05-03T06:13:49.547Z,10.20
2023-05-03T06:16:17.658Z,10.20
2023-05-03T06:18:46.886Z,10.20
2023-05-03T06:21:14.878Z,10.30
2023-05-03T06:23:42.790Z,10.40
2023-05-03T06:26:10.846Z,10.30
2023-05-03T06:28:38.868Z,10.20
2023-05-03T06:31:06.997Z,10.00
2023-05-03T06:33:35.010Z,9.90
2023-05-03T06:36:04.473Z,9.80
2023-05-03T06:38:32.623Z,9.90
2023-05-03T06:41:00.702Z,9.90
2023-05-03T06:43:28.630Z,10.10
2023-05-03T06:45:56.764Z,10.10
2023-05-03T06:48:24.823Z,10.10
2023-05-03T06:50:52.887Z,10.00
2023-05-03T06:53:22.214Z,10.00
2023-05-03T06:55:50.207Z,10.10
2023-05-03T06:58:18.244Z,10.00
2023-05-03T07:00:46.684Z,10.00
2023-05-03T07:03:14.729Z,10.20
2023-05-03T07:05:42.818Z,10.10
2023-05-03T07:08:10.871Z,10.00
2023-05-03T07:10:41.823Z,9.90
2023-05-03T07:13:10.127Z,9.90
2023-05-03T07:15:38.068Z,9.90
2023-05-03T07:18:06.290Z,9.70
2023-05-03T07:20:34.256Z,9.70
2023-05-03T07:23:02.389Z,9.90
2023-05-03T07:25:30.456Z,10.10
2023-05-03T07:28:00.225Z,10.20
2023-05-03T07:30:29.542Z,10.20
2023-05-03T07:32:57.671Z,10.10
2023-05-03T07:35:26.889Z,10.20
2023-05-03T07:37:54.815Z,10.20
2023-05-03T07:40:22.907Z,10.00
2023-05-03T07:42:50.886Z,10.10
2023-05-03T07:45:20.896Z,10.40
2023-05-03T07:47:49.037Z,10.40
2023-05-03T07:50:17.329Z,10.50
2023-05-03T07:52:45.293Z,10.70
2023-05-03T07:55:13.399Z,10.90
2023-05-03T07:57:41.475Z,10.80
2023-05-03T08:00:11.312Z,10.90
2023-05-03T08:02:40.899Z,11.10
2023-05-03T08:05:09.965Z,11.00
2023-05-03T08:07:37.984Z,11.00
2023-05-03T08:10:06.690Z,11.40
2023-05-03T08:12:34.841Z,11.60
2023-05-03T08:15:04.944Z,11.60
2023-05-03T08:17:32.894Z,11.90
2023-05-03T08:20:02.657Z,11.90
2023-05-03T08:22:31.429Z,12.00
2023-05-03T08:25:01.484Z,12.30
2023-05-03T08:27:29.796Z,12.20
2023-05-03T08:29:57.918Z,12.20
2023-05-03T08:32:26.251Z,12.50
2023-05-03T08:34:55.859Z,12.60
2023-05-03T08:37:25.198Z,12.90
2023-05-03T08:39:53.200Z,13.00
2023-05-03T08:42:21.112Z,13.00
2023-05-03T08:44:50.150Z,13.10
2023-05-03T08:47:18.691Z,13.10
2023-05-03T08:49:46.905Z,13.00
2023-05-03T08:52:18.257Z,12.90
2023-05-03T08:54:49.355Z,13.00
2023-05-03T08:57:18.571Z,13.20
2023-05-03T08:59:50.065Z,13.40
2023-05-03T09:02:18.910Z,13.00
2023-05-03T09:04:47.010Z,13.10
2023-05-03T09:07:16.738Z,13.10
2023-05-03T09:09:47.146Z,13.20
2023-05-03T09:12:35.009Z,13.00
2023-05-03T09:15:03.766Z,13.20
2023-05-03T09:17:31.868Z,13.30
2023-05-03T09:20:01.264Z,13.40
2023-05-03T09:22:32.058Z,13.50
2023-05-03T09:25:01.426Z,13.50
2023-05-03T09:27:30.716Z,13.30
2023-05-03T09:29:58.760Z,13.50
2023-05-03T09:32:29.466Z,13.50
2023-05-03T09:35:10.277Z,13.40
2023-05-03T09:37:38.971Z,13.30
2023-05-03T09:40:10.178Z,13.50
2023-05-03T09:42:43.747Z,13.60
2023-05-03T09:45:12.224Z,13.80
2023-05-03T09:47:51.946Z,13.60
2023-05-03T09:50:20.074Z,13.60
2023-05-03T09:52:48.486Z,13.30
2023-05-03T09:55:18.163Z,13.40
2023-05-03T09:57:51.249Z,13.60
2023-05-03T10:00:20.668Z,14.00
2023-05-03T10:02:51.209Z,14.40
2023-05-03T10:05:22.183Z,14.40
2023-05-03T10:07:53.605Z,15.30
2023-05-03T10:10:22.377Z,16.40
2023-05-03T10:12:53.893Z,17.10
2023-05-03T10:15:24.086Z,17.60
2023-05-03T10:17:55.121Z,18.10
2023-05-03T10:20:27.660Z,18.90
2023-05-03T10:23:12.372Z,19.60
2023-05-03T10:25:41.473Z,19.90
2023-05-03T10:28:11.079Z,20.70
2023-05-03T10:30:40.528Z,21.50
2023-05-03T10:33:31.019Z,21.90
2023-05-03T10:36:01.514Z,21.90
2023-05-03T10:38:31.901Z,21.20
2023-05-03T10:41:03.586Z,22.80
2023-05-03T10:43:46.075Z,23.70
2023-05-03T10:46:44.870Z,23.50
2023-05-03T10:49:21.302Z,22.90
2023-05-03T10:51:49.782Z,22.20
2023-05-03T10:54:19.437Z,21.70
2023-05-03T10:56:52.792Z,21.90
2023-05-03T10:59:23.525Z,22.50
2023-05-03T11:01:53.084Z,23.20
2023-05-03T11:04:43.063Z,23.90
2023-05-03T11:07:11.612Z,24.50
2023-05-03T11:09:39.818Z,24.90
2023-05-03T11:12:09.557Z,24.90
2023-05-03T11:14:39.917Z,23.70
2023-05-03T11:17:07.960Z,22.30
2023-05-03T11:19:36.316Z,21.60
2023-05-03T11:22:08.076Z,21.00
2023-05-03T11:24:36.118Z,20.50
2023-05-03T11:27:07.795Z,20.10
2023-05-03T11:29:39.614Z,19.90
2023-05-03T11:32:10.521Z,19.60
2023-05-03T11:34:39.947Z,18.90
2023-05-03T11:37:11.029Z,18.90
2023-05-03T11:39:39.221Z,18.60
2023-05-03T11:42:07.187Z,18.50
2023-05-03T11:44:35.996Z,18.20
2023-05-03T11:47:07.084Z,18.10
2023-05-03T11:49:35.264Z,18.10
2023-05-03T11:52:03.797Z,18.00
2023-05-03T11:54:31.700Z,17.80
2023-05-03T11:57:01.965Z,17.60
2023-05-03T11:59:38.189Z,17.50
2023-05-03T12:02:09.243Z,17.40
2023-05-03T12:04:41.540Z,17.30
2023-05-03T12:07:13.358Z,17.20
2023-05-03T12:09:44.503Z,17.30
2023-05-03T12:12:24.414Z,17.50
2023-05-03T12:14:58.957Z,17.40
2023-05-03T12:17:39.761Z,17.40
2023-05-03T12:22:57.636Z,17.20
2023-05-03T12:25:28.720Z,17.20
2023-05-03T12:28:18.460Z,16.90
2023-05-03T12:30:49.025Z,16.70
2023-05-03T12:33:21.858Z,16.80
2023-05-03T12:35:53.543Z,16.70
2023-05-03T12:38:24.006Z,16.80
2023-05-03T12:40:53.702Z,16.80
2023-05-03T12:43:22.193Z,16.90
2023-05-03T12:46:02.438Z,16.90
2023-05-03T12:48:39.314Z,16.90
2023-05-03T12:51:19.359Z,16.80
2023-05-03T12:53:54.148Z,16.40
2023-05-03T12:56:24.727Z,16.50
2023-05-03T12:59:19.281Z,16.60
2023-05-03T13:06:47.220Z,16.90
2023-05-03T13:09:21.275Z,16.80
2023-05-03T13:11:50.962Z,16.90
2023-05-03T13:14:19.129Z,17.00
2023-05-03T13:16:47.257Z,16.90
2023-05-03T13:19:17.219Z,17.00
2023-05-03T13:21:45.128Z,17.20
2023-05-03T13:24:13.171Z,17.50
2023-05-03T13:26:41.468Z,17.50
2023-05-03T13:29:09.605Z,17.40
2023-05-03T13:31:37.541Z,17.30
2023-05-03T13:34:06.913Z,17.00
2023-05-03T13:36:36.875Z,16.70
2023-05-03T13:39:06.743Z,16.70
2023-05-03T13:41:34.648Z,16.80
2023-05-03T13:44:02.607Z,17.00
2023-05-03T13:46:30.889Z,17.30
2023-05-03T13:48:58.978Z,17.50
2023-05-03T13:51:28.524Z,17.60
2023-05-03T13:53:57.926Z,17.70
2023-05-03T13:56:26.008Z,17.60
2023-05-03T13:58:55.478Z,17.70
2023-05-03T14:01:23.617Z,17.80
2023-05-03T14:03:51.889Z,17.70
2023-05-03T14:06:20.441Z,17.50
2023-05-03T14:08:48.668Z,17.40
2023-05-03T14:11:22.121Z,17.20
2023-05-03T14:13:57.057Z,17.20
2023-05-03T14:16:40.140Z,17.20
2023-05-03T14:19:10.611Z,17.10
2023-05-03T14:21:39.304Z,17.10
2023-05-03T14:24:07.479Z,17.00
2023-05-03T14:26:37.154Z,16.90
2023-05-03T14:29:05.757Z,17.00
2023-05-03T14:31:34.464Z,17.00
2023-05-03T14:34:02.759Z,17.10
2023-05-03T14:36:35.827Z,17.10
2023-05-03T14:39:04.418Z,17.10
2023-05-03T14:41:33.397Z,17.20
2023-05-03T14:44:02.965Z,17.00
2023-05-03T14:46:31.298Z,17.00
2023-05-03T14:49:01.388Z,17.00
2023-05-03T14:51:29.396Z,16.90
2023-05-03T14:53:57.340Z,16.90
2023-05-03T14:56:25.326Z,16.90
2023-05-03T14:58:53.303Z,17.00
2023-05-03T15:01:24.257Z,17.10
2023-05-03T15:03:53.322Z,17.30
2023-05-03T15:06:25.409Z,17.60
2023-05-03T15:08:55.001Z,17.80
2023-05-03T15:11:22.911Z,17.90
2023-05-03T15:13:51.086Z,17.90
2023-05-03T15:16:19.231Z,17.80
2023-05-03T15:18:48.939Z,17.70
2023-05-03T15:21:19.725Z,17.70
2023-05-03T15:23:48.321Z,17.50
2023-05-03T15:26:16.583Z,17.40
2023-05-03T15:28:44.754Z,17.20
2023-05-03T15:31:14.147Z,17.00
2023-05-03T15:33:42.934Z,16.90
2023-05-03T15:36:13.719Z,16.70
2023-05-03T15:38:42.042Z,16.80
2023-05-03T15:41:10.090Z,16.70
2023-05-03T15:43:38.159Z,16.60
2023-05-03T15:46:06.765Z,16.70
2023-05-03T15:48:34.669Z,16.70
2023-05-03T15:51:02.612Z,16.80
2023-05-03T15:53:31.966Z,16.80
2023-05-03T15:56:00.234Z,16.90
2023-05-03T15:58:30.929Z,17.10
2023-05-03T16:00:59.427Z,17.10
2023-05-03T16:03:28.665Z,16.80
2023-05-03T16:05:57.207Z,16.80
2023-05-03T16:08:26.409Z,16.70
2023-05-03T16:10:55.681Z,16.70
2023-05-03T16:13:23.571Z,16.70
2023-05-03T16:15:53.069Z,16.80
2023-05-03T16:18:21.037Z,16.60
2023-05-03T16:20:49.339Z,16.50
2023-05-03T16:23:17.308Z,16.40
2023-05-03T16:25:45.222Z,16.40
2023-05-03T16:28:14.804Z,16.50
2023-05-03T16:30:42.751Z,16.40
2023-05-03T16:33:11.211Z,16.50
2023-05-03T16:35:39.426Z,16.50
2023-05-03T16:38:07.475Z,16.30
2023-05-03T16:40:37.556Z,16.20
2023-05-03T16:43:07.600Z,16.40
2023-05-03T16:45:37.624Z,16.20
2023-05-03T16:48:08.185Z,16.30
2023-05-03T16:50:38.305Z,16.20
2023-05-03T16:53:06.234Z,16.10
2023-05-03T16:55:38.048Z,16.10
2023-05-03T16:58:06.106Z,16.00
2023-05-03T17:00:34.100Z,16.10
2023-05-03T17:03:03.594Z,16.10
2023-05-03T17:05:33.158Z,16.20
2023-05-03T17:08:01.640Z,16.10
2023-05-03T17:10:29.824Z,16.10
2023-05-03T17:12:58.802Z,16.20
2023-05-03T17:15:26.986Z,16.20
2023-05-03T17:17:55.218Z,16.10
2023-05-03T17:20:24.629Z,16.10
2023-05-03T17:22:52.738Z,16.10
2023-05-03T17:25:21.248Z,16.10
2023-05-03T17:27:51.647Z,16.00
2023-05-03T17:30:21.254Z,15.90
2023-05-03T17:32:49.940Z,15.90
2023-05-03T17:35:18.395Z,15.80
2023-05-03T17:37:47.841Z,15.90
2023-05-03T17:40:16.214Z,15.80
2023-05-03T17:42:44.198Z,15.80
2023-05-03T17:45:13.972Z,15.70
2023-05-03T17:47:41.964Z,15.70
2023-05-03T17:50:12.414Z,15.60
2023-05-03T17:52:41.665Z,15.60
2023-05-03T17:55:12.434Z,15.60
2023-05-03T17:57:40.436Z,15.60
2023-05-03T18:00:11.139Z,15.60
2023-05-03T18:02:39.145Z,15.50
2023-05-03T18:05:07.818Z,15.50
2023-05-03T18:07:36.477Z,15.60
2023-05-03T18:10:05.505Z,15.60
2023-05-03T18:12:35.144Z,15.50
2023-05-03T18:15:06.134Z,15.40
2023-05-03T18:17:34.169Z,15.50
2023-05-03T18:20:02.586Z,15.40
2023-05-03T18:22:30.929Z,15.30
2023-05-03T18:25:01.925Z,15.30
2023-05-03T18:27:30.119Z,15.30
2023-05-03T18:29:59.394Z,15.20
2023-05-03T18:32:27.376Z,15.20
2023-05-03T18:34:55.415Z,15.20
2023-05-03T18:37:24.730Z,15.20
2023-05-03T18:39:52.921Z,15.20
2023-05-03T18:42:21.468Z,15.10
2023-05-03T18:44:49.492Z,15.20
2023-05-03T18:47:20.965Z,15.20
2023-05-03T18:49:52.464Z,15.20
2023-05-03T18:52:20.919Z,15.10
2023-05-03T18:54:49.572Z,15.00
2023-05-03T18:57:18.735Z,14.90
2023-05-03T19:00:07.771Z,14.60
2023-05-03T19:02:36.215Z,14.60
2023-05-03T19:05:04.171Z,14.50
2023-05-03T19:07:32.370Z,14.60
2023-05-03T19:10:00.929Z,14.50
2023-05-03T19:12:29.169Z,14.50
2023-05-03T19:14:57.312Z,14.30
2023-05-03T19:17:25.333Z,14.30
2023-05-03T19:19:54.860Z,14.30
2023-05-03T19:22:22.816Z,14.20
2023-05-03T19:24:51.113Z,14.30
2023-05-03T19:27:19.120Z,14.20
2023-05-03T19:29:47.054Z,14.00
2023-05-03T19:32:15.270Z,14.00
2023-05-03T19:34:43.148Z,13.90
2023-05-03T19:37:12.530Z,14.00
2023-05-03T19:39:40.675Z,14.00
2023-05-03T19:42:08.912Z,14.00
2023-05-03T19:44:38.498Z,13.90
2023-05-03T19:47:06.767Z,13.90
2023-05-03T19:49:34.886Z,14.00
2023-05-03T19:52:04.367Z,14.00
2023-05-03T19:54:34.282Z,14.00
2023-05-03T19:57:06.006Z,13.90
2023-05-03T19:59:34.208Z,13.70
2023-05-03T20:02:02.230Z,13.70
2023-05-03T20:04:30.504Z,13.70
2023-05-03T20:06:58.521Z,13.70
2023-05-03T20:09:26.596Z,13.70
2023-05-03T20:11:59.684Z,13.60
2023-05-03T20:14:28.338Z,13.60
2023-05-03T20:16:59.218Z,13.60
2023-05-03T20:19:27.269Z,13.60
2023-05-03T20:21:56.352Z,13.50
2023-05-03T20:24:24.299Z,13.70
2023-05-03T20:26:53.054Z,13.60
2023-05-03T20:29:22.383Z,13.60
2023-05-03T20:31:53.645Z,13.60
2023-05-03T20:34:21.757Z,13.50
2023-05-03T20:36:50.037Z,13.40
2023-05-03T20:39:18.044Z,13.40
2023-05-03T20:41:46.024Z,13.40
2023-05-03T20:44:14.246Z,13.40
2023-05-03T20:46:45.469Z,13.30
2023-05-03T20:49:13.442Z,13.40
2023-05-03T20:51:41.517Z,13.40
2023-05-03T20:54:09.557Z,13.40
2023-05-03T20:56:37.468Z,13.40
2023-05-03T20:59:05.742Z,13.20
2023-05-03T21:01:33.847Z,13.30
2023-05-03T21:04:04.151Z,13.30
2023-05-03T21:06:32.026Z,13.20
2023-05-03T21:09:00.123Z,13.10
2023-05-03T21:11:28.182Z,13.10
2023-05-03T21:13:56.379Z,13.10
2023-05-03T21:16:24.369Z,13.10
2023-05-03T21:18:53.260Z,13.00
2023-05-03T21:21:22.819Z,13.00
2023-05-03T21:23:50.763Z,12.90
2023-05-03T21:26:18.744Z,13.00
2023-05-03T21:28:46.644Z,13.00
2023-05-03T21:31:14.630Z,12.90
2023-05-03T21:33:43.362Z,12.80
2023-05-03T21:36:12.520Z,12.90
2023-05-03T21:38:41.973Z,12.90
2023-05-03T21:41:10.237Z,12.90
2023-05-03T21:43:38.577Z,12.70
2023-05-03T21:46:08.328Z,12.70
2023-05-03T21:48:36.441Z,12.70
2023-05-03T21:51:04.663Z,12.70
2023-05-03T21:53:33.345Z,12.80
2023-05-03T21:56:02.710Z,12.70
2023-05-03T21:58:31.009Z,12.70
2023-05-03T22:00:59.229Z,12.60
2023-05-03T22:03:27.377Z,12.70
2023-05-03T22:05:55.332Z,12.70
2023-05-03T22:08:23.383Z,12.70
2023-05-03T22:10:52.187Z,12.60
2023-05-03T22:13:21.535Z,12.50
2023-05-03T22:15:49.574Z,12.50
2023-05-03T22:18:17.499Z,12.50
2023-05-03T22:20:45.407Z,12.40
2023-05-03T22:23:14.584Z,12.50
2023-05-03T22:25:42.717Z,12.30
2023-05-03T22:28:10.837Z,12.40
2023-05-03T22:30:40.108Z,12.40
2023-05-03T22:33:08.425Z,12.30
2023-05-03T22:35:36.571Z,12.20
2023-05-03T22:38:05.324Z,12.00
2023-05-03T22:40:33.432Z,11.80
2023-05-03T22:43:01.329Z,11.90
2023-05-03T22:45:29.247Z,11.90
2023-05-03T22:47:58.765Z,11.80
2023-05-03T22:50:26.964Z,11.70
2023-05-03T22:52:54.996Z,11.70
2023-05-03T22:55:22.908Z,11.60
2023-05-03T22:57:51.051Z,11.70
2023-05-03T23:00:20.222Z,11.70
2023-05-03T23:02:48.514Z,11.70
2023-05-03T23:05:17.880Z,11.50
2023-05-03T23:07:46.064Z,11.40
2023-05-03T23:10:13.933Z,11.40
2023-05-03T23:12:41.941Z,11.40
2023-05-03T23:15:11.454Z,11.40
2023-05-03T23:17:39.965Z,11.30
2023-05-03T23:20:10.054Z,11.40
2023-05-03T23:22:40.877Z,11.30
2023-05-03T23:25:10.763Z,11.30
2023-05-03T23:27:38.739Z,11.20
2023-05-03T23:30:09.090Z,11.10
2023-05-03T23:32:37.563Z,11.30
2023-05-03T23:35:07.401Z,11.30
2023-05-03T23:37:35.386Z,11.20
2023-05-03T23:40:05.418Z,11.30
2023-05-03T23:42:33.722Z,11.20
2023-05-03T23:45:01.776Z,11.20
2023-05-03T23:47:29.817Z,11.10
2023-05-03T23:49:57.757Z,11.10
2023-05-03T23:52:26.389Z,11.00
2023-05-03T23:54:54.420Z,10.90
2023-05-03T23:57:23.975Z,10.90
2023-05-03T23:59:51.845Z,10.90
